RJAA/NRT METAR and TAF weather

Enter ICAO airport designator
Station Type Date Time Source
RJAA METAR 2022/12/04 04:30 UTC NOAA

RJAA 040430Z 24004KT 190V310 9999 FEW030 BKN130 15/04 Q1014 BECMG 26005KT RMK 1CU030 7AC130 A2996


Station Type Date Time Source
RJAA Decoded METAR 2022/12/04 04:30 UTC NOAA

New Tokyo Inter-National Airport, Japan (RJAA) 35-46N 140-23E 44M
Dec 03, 2022 - 11:30 PM EST / 2022.12.04 0430 UTC
Wind: from the WSW (240 degrees) at 5 MPH (4 KT) (direction variable):0
Visibility: greater than 7 mile(s):0
Sky conditions: mostly cloudy
Temperature: 59 F (15 C)
Dew Point: 39 F (4 C)
Relative Humidity: 47%
Pressure (altimeter): 29.94 in. Hg (1014 hPa)
ob: RJAA 040430Z 24004KT 190V310 9999 FEW030 BKN130 15/04 Q1014 BECMG 26005KT RMK 1CU030 7AC130 A2996
cycle: 4

Station Type Date Time Source
RJAA TAF 2022/12/03 18:31 UTC NOAA

TAF RJAA 031705Z 0318/0500 30004KT 9999 FEW020
BECMG 0401/0403 22005KT
BECMG 0406/0409 36008KT

Example: see airport list